createdAt,value
2022-10-02T00:02:15.779Z,0
2022-10-02T00:07:28.096Z,0
2022-10-02T00:12:40.442Z,0
2022-10-02T00:17:52.841Z,0
2022-10-02T00:23:05.160Z,0
2022-10-02T00:28:17.463Z,0
2022-10-02T00:33:29.609Z,0
2022-10-02T00:38:41.932Z,0
2022-10-02T00:43:54.432Z,0
2022-10-02T00:49:06.646Z,0
2022-10-02T00:54:19.028Z,0
2022-10-02T00:59:31.339Z,0
2022-10-02T01:04:44.066Z,0
2022-10-02T01:09:56.797Z,0
2022-10-02T01:15:09.043Z,0
2022-10-02T01:20:21.667Z,0
2022-10-02T01:25:34.079Z,0
2022-10-02T01:30:46.543Z,0
2022-10-02T01:35:59.299Z,0
2022-10-02T01:41:11.666Z,0
2022-10-02T01:46:24.015Z,0
2022-10-02T01:51:36.312Z,0
2022-10-02T01:56:48.627Z,0
2022-10-02T02:02:00.977Z,0
2022-10-02T02:07:13.202Z,0
2022-10-02T02:12:25.435Z,0
2022-10-02T02:17:37.877Z,0
2022-10-02T02:22:50.371Z,0
2022-10-02T02:28:02.695Z,0
2022-10-02T02:33:15.139Z,0
2022-10-02T02:43:39.695Z,0
2022-10-02T02:48:52.273Z,0
2022-10-02T02:54:04.556Z,0
2022-10-02T02:59:17.109Z,0
2022-10-02T03:04:29.539Z,0
2022-10-02T03:09:41.783Z,0
2022-10-02T03:14:54.054Z,0
2022-10-02T03:20:06.365Z,0
2022-10-02T03:25:18.560Z,0
2022-10-02T03:30:30.833Z,0
2022-10-02T03:35:43.111Z,0
2022-10-02T03:40:56.320Z,0
2022-10-02T03:46:08.666Z,0
2022-10-02T03:51:20.984Z,0
2022-10-02T03:56:33.467Z,0
2022-10-02T04:01:49.061Z,0
2022-10-02T04:06:58.262Z,0
2022-10-02T04:12:10.552Z,0
2022-10-02T04:17:22.901Z,0
2022-10-02T04:22:35.451Z,0
2022-10-02T04:27:47.781Z,0
2022-10-02T04:32:59.864Z,0
2022-10-02T04:38:12.202Z,0
2022-10-02T04:43:24.726Z,0
2022-10-02T04:48:37.110Z,0
2022-10-02T04:53:49.192Z,174
2022-10-02T04:59:01.472Z,572
2022-10-02T05:04:13.699Z,1435
2022-10-02T05:09:28.491Z,2502
2022-10-02T05:14:38.449Z,3321
2022-10-02T05:19:50.875Z,4188
2022-10-02T05:25:03.180Z,4689
2022-10-02T05:30:15.436Z,5112
2022-10-02T05:35:27.559Z,5158
2022-10-02T05:51:04.396Z,5163
2022-10-02T05:56:16.735Z,5064
2022-10-02T06:01:29.105Z,5083
2022-10-02T06:06:41.272Z,5106
2022-10-02T06:11:53.513Z,5161
2022-10-02T06:17:05.736Z,5101
2022-10-02T06:22:18.239Z,5099
2022-10-02T06:27:30.613Z,5161
2022-10-02T06:32:42.982Z,5161
2022-10-02T06:37:55.067Z,5115
2022-10-02T06:43:07.796Z,5161
2022-10-02T06:48:20.054Z,4951
2022-10-02T06:53:32.310Z,5092
2022-10-02T06:58:44.733Z,5106
2022-10-02T07:03:56.882Z,5110
2022-10-02T07:09:09.149Z,5106
2022-10-02T07:14:21.397Z,5108
2022-10-02T07:19:33.805Z,4981
2022-10-02T07:24:46.226Z,5083
2022-10-02T07:29:58.687Z,5112
2022-10-02T07:35:10.972Z,5168
2022-10-02T07:40:23.511Z,5064
2022-10-02T07:45:35.926Z,5172
2022-10-02T07:50:48.151Z,5133
2022-10-02T07:56:00.428Z,5094
2022-10-02T08:01:12.729Z,5032
2022-10-02T08:06:25.057Z,5069
2022-10-02T08:11:37.358Z,5170
2022-10-02T08:16:49.655Z,5179
2022-10-02T08:22:01.996Z,5184
2022-10-02T08:32:27.800Z,5186
2022-10-02T08:37:38.880Z,5186
2022-10-02T08:42:51.165Z,5087
2022-10-02T08:48:03.350Z,5094
2022-10-02T08:53:15.599Z,5138
2022-10-02T08:58:28.006Z,5055
2022-10-02T09:03:40.294Z,5085
2022-10-02T09:08:52.486Z,5140
2022-10-02T09:14:04.806Z,5014
2022-10-02T09:19:17.051Z,5129
2022-10-02T09:24:29.312Z,5179
2022-10-02T09:29:41.575Z,5188
2022-10-02T09:34:53.922Z,5071
2022-10-02T09:40:06.344Z,5188
2022-10-02T09:45:18.844Z,5163
2022-10-02T09:50:31.135Z,5142
2022-10-02T09:55:43.725Z,5138
2022-10-02T10:00:56.279Z,5191
2022-10-02T10:06:08.592Z,5046
2022-10-02T10:11:20.680Z,5133
2022-10-02T10:16:32.836Z,5092
2022-10-02T10:21:45.160Z,5181
2022-10-02T10:26:57.246Z,5115
2022-10-02T10:32:09.346Z,5129
2022-10-02T10:37:21.713Z,5106
2022-10-02T10:42:44.873Z,5085
2022-10-02T10:47:47.447Z,5131
2022-10-02T10:52:59.887Z,5179
2022-10-02T10:58:12.134Z,5138
2022-10-02T11:03:24.630Z,5069
2022-10-02T11:08:37.198Z,5083
2022-10-02T11:13:49.572Z,5188
2022-10-02T11:24:14.225Z,5099
2022-10-02T11:29:26.315Z,5186
2022-10-02T11:34:39.079Z,5101
2022-10-02T11:39:51.627Z,5037
2022-10-02T11:45:04.104Z,5158
2022-10-02T11:50:17.011Z,5195
2022-10-02T11:55:29.580Z,5193
2022-10-02T12:00:41.489Z,5202
2022-10-02T12:05:54.104Z,5209
2022-10-02T12:11:06.636Z,5211
2022-10-02T12:16:19.191Z,5184
2022-10-02T12:21:31.614Z,5198
2022-10-02T12:26:44.114Z,5179
2022-10-02T12:32:11.450Z,5204
2022-10-02T12:37:24.064Z,5186
2022-10-02T12:42:36.400Z,5202
2022-10-02T12:47:48.688Z,5181
2022-10-02T12:53:01.186Z,5195
2022-10-02T12:58:14.033Z,5214
2022-10-02T13:03:26.445Z,5188
2022-10-02T13:08:39.218Z,5204
2022-10-02T13:13:51.670Z,5223
2022-10-02T13:19:04.068Z,5207
2022-10-02T13:24:16.306Z,5214
2022-10-02T13:29:28.956Z,5225
2022-10-02T13:34:41.239Z,5221
2022-10-02T13:39:53.152Z,5216
2022-10-02T13:45:05.502Z,5204
2022-10-02T13:50:18.047Z,5214
2022-10-02T13:55:30.347Z,5204
2022-10-02T14:00:46.527Z,5223
2022-10-02T14:05:59.249Z,5225
2022-10-02T14:11:11.985Z,5227
2022-10-02T14:16:24.638Z,5227
2022-10-02T14:21:37.329Z,5230
2022-10-02T14:26:49.375Z,5211
2022-10-02T14:32:01.651Z,5223
2022-10-02T14:37:13.703Z,5211
2022-10-02T14:42:26.386Z,5198
2022-10-02T14:47:38.619Z,5218
2022-10-02T14:52:50.666Z,5227
2022-10-02T14:58:03.199Z,5221
2022-10-02T15:03:15.570Z,5218
2022-10-02T15:08:27.663Z,5202
2022-10-02T15:13:40.120Z,5216
2022-10-02T15:18:53.529Z,5225
2022-10-02T15:24:05.816Z,5225
2022-10-02T15:29:18.080Z,5195
2022-10-02T15:34:30.240Z,5204
2022-10-02T15:39:42.529Z,5214
2022-10-02T15:44:54.832Z,5225
2022-10-02T15:50:06.872Z,5221
2022-10-02T15:55:19.732Z,5218
2022-10-02T16:00:31.339Z,5216
2022-10-02T16:05:43.754Z,5211
2022-10-02T16:10:55.860Z,5175
2022-10-02T16:16:08.144Z,5204
2022-10-02T16:21:20.260Z,5175
2022-10-02T16:26:32.407Z,5195
2022-10-02T16:31:44.786Z,5184
2022-10-02T16:36:57.069Z,5133
2022-10-02T16:42:09.171Z,4142
2022-10-02T16:47:21.309Z,3362
2022-10-02T16:52:33.682Z,2493
2022-10-02T16:57:45.839Z,1573
2022-10-02T17:08:10.486Z,213
2022-10-02T17:13:22.913Z,0
2022-10-02T17:18:36.342Z,0
2022-10-02T17:23:48.896Z,0
2022-10-02T17:29:01.209Z,0
2022-10-02T17:34:13.437Z,0
2022-10-02T17:39:25.766Z,0
2022-10-02T17:44:40.835Z,0
2022-10-02T17:49:50.189Z,0
2022-10-02T17:55:02.620Z,0
2022-10-02T18:00:15.545Z,0
2022-10-02T18:05:27.966Z,0
2022-10-02T18:10:40.515Z,0
2022-10-02T18:15:52.999Z,0
2022-10-02T18:21:05.311Z,0
2022-10-02T18:26:19.170Z,0
2022-10-02T18:31:51.334Z,0
2022-10-02T18:36:42.648Z,0
2022-10-02T18:41:55.074Z,0
2022-10-02T18:47:07.388Z,0
2022-10-02T18:52:19.820Z,0
2022-10-02T18:57:31.953Z,0
2022-10-02T19:02:44.163Z,0
2022-10-02T19:07:56.488Z,0
2022-10-02T19:13:09.549Z,0
2022-10-02T19:18:21.035Z,0
2022-10-02T19:23:33.462Z,0
2022-10-02T19:28:45.636Z,0
2022-10-02T19:33:57.791Z,0
2022-10-02T19:39:10.025Z,0
2022-10-02T19:44:22.569Z,0
2022-10-02T19:54:46.973Z,0
2022-10-02T19:59:59.601Z,0
2022-10-02T20:05:11.832Z,0
2022-10-02T20:10:24.143Z,0
2022-10-02T20:15:36.488Z,0
2022-10-02T20:20:48.884Z,0
2022-10-02T20:26:01.829Z,0
2022-10-02T20:31:14.261Z,0
2022-10-02T20:36:26.352Z,0
2022-10-02T20:41:38.939Z,0
2022-10-02T20:46:51.212Z,0
2022-10-02T20:52:03.512Z,0
2022-10-02T20:57:15.791Z,0
2022-10-02T21:02:28.158Z,0
2022-10-02T21:07:40.626Z,0
2022-10-02T21:12:53.049Z,0
2022-10-02T21:18:05.260Z,0
2022-10-02T21:23:17.619Z,0
2022-10-02T21:28:30.415Z,0
2022-10-02T21:33:42.471Z,0
2022-10-02T21:38:54.945Z,0
2022-10-02T21:44:07.165Z,0
2022-10-02T21:49:19.554Z,0
2022-10-02T21:54:31.884Z,0
2022-10-02T21:59:44.268Z,0
2022-10-02T22:05:06.220Z,0
2022-10-02T22:10:18.560Z,0
2022-10-02T22:15:30.893Z,0
2022-10-02T22:20:43.224Z,0
2022-10-02T22:25:55.574Z,0
2022-10-02T22:31:08.112Z,0
2022-10-02T22:41:33.190Z,0
2022-10-02T22:46:45.642Z,0
2022-10-02T22:52:00.127Z,0
2022-10-02T22:57:10.320Z,0
2022-10-02T23:02:22.648Z,0
2022-10-02T23:07:35.042Z,0
2022-10-02T23:12:47.352Z,0
2022-10-02T23:17:59.742Z,0
2022-10-02T23:23:12.375Z,0
2022-10-02T23:28:24.785Z,0
2022-10-02T23:33:37.157Z,0
2022-10-02T23:38:49.405Z,0
2022-10-02T23:44:01.673Z,0
2022-10-02T23:49:14.220Z,0
2022-10-02T23:54:26.462Z,0
2022-10-02T23:59:38.943Z,0
